LGAD/PYR METAR and TAF weather

Enter ICAO airport designator
Station Type Date Time Source
LGAD METAR 2022/01/18 06:20 UTC NOAA

LGAD 180620Z VRB03KT 9999 FEW025 06/05 Q1022


Station Type Date Time Source
LGAD Decoded METAR 2022/01/18 06:20 UTC NOAA

Andravida Airport , Greece (LGAD) 37-55N 021-17E 14M
Jan 18, 2022 - 01:20 AM EST / 2022.01.18 0620 UTC
Wind: Variable at 3 MPH (3 KT):0
Visibility: greater than 7 mile(s):0
Sky conditions: mostly clear
Temperature: 42 F (6 C)
Dew Point: 41 F (5 C)
Relative Humidity: 93%
Pressure (altimeter): 30.18 in. Hg (1022 hPa)
ob: LGAD 180620Z VRB03KT 9999 FEW025 06/05 Q1022
cycle: 6

Station Type Date Time Source
LGAD TAF 2020/03/18 09:39 UTC NOAA

TAF TAF LGAD 180800Z 1809/1821 30006KT 9999 FEW030
BECMG 1816/1818 07010KT

Example: see airport list